Vano — SBNM — position and weather

sailwx.info

Track history (hours):
 
Tides and Currents Weather Stations Pressure Air Temp Water Temp Dewpoint Dewpoint Depression Visibility Wind Speed Wind Dir Waves Ship Positions

Vano

Last reported at 2017-Apr-26 23:30 UTC. Time now 2017-Apr-26 23:37 UTC.
Position N 59°24' E 018°21'.

Length 38 m; draft 1.8 m.

Type: Passenger vessel. MMSI: 265520400.

Date/timePositionNaut miles runAvg speedWind from/ knotsBaromVisibWave heightAir tempDewpointWater temp
2017-Apr-26 23:30N 59°24' E 018°21'0 0.0
2017-Apr-26 23:00N 59°24' E 018°21'0 0.0
2017-Apr-26 22:30N 59°24' E 018°21'0 0.0
2017-Apr-26 22:00N 59°24' E 018°21'0 0.0
2017-Apr-26 21:29N 59°24' E 018°21'0 0.0
2017-Apr-26 21:00N 59°24' E 018°21'0 0.0
2017-Apr-26 20:29N 59°24' E 018°21'0 0.0
2017-Apr-26 19:59N 59°24' E 018°21'0 0.0
2017-Apr-26 19:28N 59°24' E 018°21'0 0.0
2017-Apr-26 18:58N 59°24' E 018°21'0 0.0
2017-Apr-26 18:28N 59°24' E 018°21'0 0.0
2017-Apr-26 17:59N 59°24' E 018°21'0 0.0
2017-Apr-26 17:30N 59°24' E 018°21'2 3.0
2017-Apr-26 17:01N 59°23' E 018°24'2 3.4
2017-Apr-26 16:30N 59°23' E 018°21'4 8.6
2017-Apr-26 16:01N 59°21' E 018°14'5 9.7
2017-Apr-26 15:31N 59°20' E 018°04'0 0.1
2017-Apr-26 15:01N 59°20' E 018°05'0 0.0
2017-Apr-26 14:00N 59°20' E 018°05'0 0.0
2017-Apr-26 13:30N 59°20' E 018°05'0 0.0
2017-Apr-26 13:01N 59°20' E 018°05'0 0.0
2017-Apr-26 12:31N 59°20' E 018°05'0 0.0
2017-Apr-26 12:01N 59°20' E 018°05'0 0.0
2017-Apr-26 11:31N 59°20' E 018°05'0 0.0
2017-Apr-26 11:00N 59°20' E 018°05'0 0.0
2017-Apr-26 10:31N 59°20' E 018°05'0 0.0
2017-Apr-26 10:01N 59°20' E 018°05'0 0.0
2017-Apr-26 09:30N 59°20' E 018°05'0 0.0
2017-Apr-26 09:00N 59°20' E 018°05'0 0.0
2017-Apr-26 08:31N 59°20' E 018°05'1 1.8
2017-Apr-26 08:01N 59°19' E 018°06'611.3
2017-Apr-26 07:31N 59°22' E 018°16'4 7.2
2017-Apr-26 06:59N 59°24' E 018°21'3 7.0
2017-Apr-26 06:30N 59°25' E 018°28'9 9.1
2017-Apr-26 05:30N 59°23' E 018°44'4 7.4
2017-Apr-26 04:56N 59°22' E 018°53'3 7.4
2017-Apr-26 04:30N 59°25' E 018°55'1 2.4
2017-Apr-26 04:00N 59°27' E 018°55'0 0.0
2017-Apr-26 03:30N 59°27' E 018°55'0 0.0
2017-Apr-26 03:00N 59°27' E 018°55'0 0.0
2017-Apr-26 02:30N 59°27' E 018°55'0 0.0
2017-Apr-26 02:00N 59°27' E 018°55'0 0.0
2017-Apr-26 01:30N 59°27' E 018°55'0 0.0
2017-Apr-26 01:00N 59°27' E 018°55'0 0.0
2017-Apr-26 00:30N 59°27' E 018°55'0 0.0
2017-Apr-26 00:00N 59°27' E 018°55'0 0.0
2017-Apr-25 23:30N 59°27' E 018°55'0 0.0
2017-Apr-25 23:00N 59°27' E 018°55'0 0.0
2017-Apr-25 22:30N 59°27' E 018°55'0 0.0
2017-Apr-25 22:00N 59°27' E 018°55'0 0.0
2017-Apr-25 21:30N 59°27' E 018°55'0 0.0
2017-Apr-25 21:00N 59°27' E 018°55'0 0.0
2017-Apr-25 20:30N 59°27' E 018°55'0 0.0
2017-Apr-25 20:00N 59°27' E 018°55'0 0.0
2017-Apr-25 19:30N 59°27' E 018°55'0 0.0
2017-Apr-25 19:00N 59°27' E 018°55'0 0.0
2017-Apr-25 18:30N 59°27' E 018°55'0 0.0
2017-Apr-25 18:00N 59°27' E 018°55'0 0.0
2017-Apr-25 17:30N 59°27' E 018°55'0 0.9
2017-Apr-25 17:00N 59°26' E 018°56'4 1.0
2017-Apr-25 12:30N 59°23' E 018°50'3 6.7
2017-Apr-25 12:00N 59°25' E 018°55'1 2.4
2017-Apr-25 11:30N 59°27' E 018°55'0 0.0
2017-Apr-25 11:00N 59°27' E 018°55'0 0.0
2017-Apr-25 10:30N 59°27' E 018°55'5 4.6
2017-Apr-25 09:23N 59°24' E 018°47'5 1.4
2017-Apr-25 05:37N 59°24' E 018°37'212.6
2017-Apr-25 05:28N 59°26' E 018°39'2 4.5
2017-Apr-25 04:59N 59°26' E 018°43'510.1
2017-Apr-25 04:30N 59°30' E 018°50'5 0.4
2017-Apr-24 16:34N 59°26' E 018°45'110.2
2017-Apr-24 16:28N 59°27' E 018°46'3 5.3
2017-Apr-24 15:56N 59°26' E 018°41'4 4.4
2017-Apr-24 15:01N 59°24' E 018°34'112.8
2017-Apr-24 14:59N 59°24' E 018°33'4 7.3
2017-Apr-24 14:30N 59°26' E 018°27'8 7.8
2017-Apr-24 13:31N 59°21' E 018°15'510.6
2017-Apr-24 13:00N 59°20' E 018°04'0 0.1
2017-Apr-24 12:30N 59°20' E 018°05'0 0.0
2017-Apr-24 12:00N 59°20' E 018°05'0 0.0
2017-Apr-24 11:30N 59°20' E 018°05'0 0.0
2017-Apr-24 11:00N 59°20' E 018°05'0 0.0
2017-Apr-24 10:30N 59°20' E 018°05'0 0.0
2017-Apr-24 10:00N 59°20' E 018°05'0 0.0
2017-Apr-24 09:30N 59°20' E 018°05'0 0.0
2017-Apr-24 09:00N 59°20' E 018°05'0 0.0
2017-Apr-24 08:30N 59°20' E 018°05'0 0.0
2017-Apr-24 08:01N 59°20' E 018°05'0 0.0
2017-Apr-24 07:30N 59°20' E 018°05'0 0.0
2017-Apr-24 07:00N 59°20' E 018°05'0 0.0
2017-Apr-24 06:30N 59°20' E 018°05'0 0.0
2017-Apr-24 06:00N 59°20' E 018°05'0 0.0
2017-Apr-24 05:30N 59°20' E 018°05'0 0.0
2017-Apr-24 05:00N 59°20' E 018°05'0 0.0
2017-Apr-24 04:30N 59°20' E 018°05'0 0.0
2017-Apr-24 04:00N 59°20' E 018°05'0 0.0
2017-Apr-24 03:30N 59°20' E 018°05'0 0.0
2017-Apr-24 03:00N 59°20' E 018°05'0 0.0
2017-Apr-24 02:30N 59°20' E 018°05'0 0.0
2017-Apr-24 02:00N 59°20' E 018°05'0 0.0
2017-Apr-24 01:30N 59°20' E 018°05'0 0.0
2017-Apr-24 01:00N 59°20' E 018°05'0 0.0
2017-Apr-24 00:30N 59°20' E 018°05'0 0.0
2017-Apr-24 00:00N 59°20' E 018°05'0 0.0
2017-Apr-23 23:30N 59°20' E 018°05'0 0.0
2017-Apr-23 23:00N 59°20' E 018°05'0 0.0
2017-Apr-23 22:30N 59°20' E 018°05'0 0.0
2017-Apr-23 22:00N 59°20' E 018°05'0 0.0
2017-Apr-23 21:30N 59°20' E 018°05'0 0.0
2017-Apr-23 21:00N 59°20' E 018°05'0 0.0
2017-Apr-23 20:30N 59°20' E 018°05'0 0.0
2017-Apr-23 20:00N 59°20' E 018°05'0 0.0
2017-Apr-23 19:30N 59°20' E 018°05'0 0.0
2017-Apr-23 19:00N 59°20' E 018°05'2 3.4
2017-Apr-23 18:30N 59°19' E 018°08'713.1
2017-Apr-23 17:59N 59°22' E 018°20'4 8.7
2017-Apr-23 17:30N 59°26' E 018°25'7 8.4
2017-Apr-23 16:41N 59°28' E 018°38'211.2
2017-Apr-23 16:30N 59°28' E 018°42'5 9.8
2017-Apr-23 16:00N 59°30' E 018°51'1013.7
2017-Apr-23 15:16N 59°24' E 018°35'415.8
2017-Apr-23 15:00N 59°25' E 018°27'1010.5
2017-Apr-23 14:00N 59°19' E 018°10'3 6.0
2017-Apr-23 13:31N 59°20' E 018°05'2 3.5
2017-Apr-23 13:00N 59°19' E 018°08'713.9
2017-Apr-23 12:30N 59°23' E 018°19'4 6.9
2017-Apr-23 12:00N 59°26' E 018°23'713.7
2017-Apr-23 11:30N 59°24' E 018°37'3 5.3
2017-Apr-23 10:56N 59°26' E 018°41'2 1.3
2017-Apr-23 09:25N 59°27' E 018°45'3 5.9
2017-Apr-23 08:54N 59°26' E 018°39'3 5.2
2017-Apr-23 08:16N 59°24' E 018°34'3 8.7
2017-Apr-23 07:54N 59°25' E 018°28'3 8.1
2017-Apr-23 07:30N 59°24' E 018°21'5 9.8
2017-Apr-23 07:01N 59°21' E 018°15'510.7
2017-Apr-23 06:31N 59°20' E 018°04'0 0.1
2017-Apr-23 06:01N 59°20' E 018°04'0 0.0
2017-Apr-23 05:30N 59°20' E 018°04'0 0.0
2017-Apr-23 05:01N 59°20' E 018°04'0 0.0
2017-Apr-23 04:31N 59°20' E 018°04'0 0.0
2017-Apr-23 04:00N 59°20' E 018°04'0 0.0
2017-Apr-23 03:30N 59°20' E 018°04'0 0.0
2017-Apr-23 03:00N 59°20' E 018°04'0 0.0
2017-Apr-23 02:30N 59°20' E 018°04'0 0.0
2017-Apr-23 02:00N 59°20' E 018°04'0 0.0
2017-Apr-23 01:30N 59°20' E 018°04'0 0.0
2017-Apr-23 01:00N 59°20' E 018°04'0 0.0
2017-Apr-23 00:30N 59°20' E 018°04'0 0.0
2017-Apr-23 00:00N 59°20' E 018°04'0 0.0
2017-Apr-22 23:30N 59°20' E 018°04'0 0.0
2017-Apr-22 23:00N 59°20' E 018°04'0 0.0
2017-Apr-22 22:30N 59°20' E 018°04'0 0.0
2017-Apr-22 22:00N 59°20' E 018°04'0 0.0
2017-Apr-22 21:30N 59°20' E 018°04'0 0.0
2017-Apr-22 21:00N 59°20' E 018°04'0 0.0
2017-Apr-22 20:30N 59°20' E 018°04'0 0.0
2017-Apr-22 20:00N 59°20' E 018°04'0 0.0
2017-Apr-22 19:30N 59°20' E 018°04'0 0.0
2017-Apr-22 19:00N 59°20' E 018°04'0 0.0
2017-Apr-22 18:30N 59°20' E 018°04'0 0.0
2017-Apr-22 18:00N 59°20' E 018°04'0 0.0
2017-Apr-22 17:28N 59°20' E 018°04'0 0.0
2017-Apr-22 16:57N 59°20' E 018°04'0 0.0
2017-Apr-22 16:30N 59°20' E 018°04'0 0.0
2017-Apr-22 15:58N 59°20' E 018°04'0 0.0
2017-Apr-22 15:30N 59°20' E 018°04'0 0.0
2017-Apr-22 15:00N 59°20' E 018°04'0 0.7
2017-Apr-22 14:30N 59°19' E 018°05'10 9.6
2017-Apr-22 13:30N 59°24' E 018°21'17 6.2
2017-Apr-22 10:45N 59°25' E 018°55'2 6.6
2017-Apr-22 10:30N 59°27' E 018°55'0 0.9
2017-Apr-22 10:00N 59°27' E 018°56'4 7.2
2017-Apr-22 09:29N 59°29' E 018°50'2 5.2
2017-Apr-22 09:00N 59°29' E 018°45'5 8.9
2017-Apr-22 08:29N 59°27' E 018°36'8 8.4
2017-Apr-22 07:31N 59°24' E 018°21'0 6.7
2017-Apr-22 07:30N 59°24' E 018°21'4 9.0
2017-Apr-22 07:00N 59°21' E 018°14'510.7
2017-Apr-22 06:31N 59°20' E 018°05'0 0.1
2017-Apr-22 06:00N 59°20' E 018°05'0 0.0
2017-Apr-22 05:30N 59°20' E 018°05'0 0.0
2017-Apr-22 05:00N 59°20' E 018°05'0 0.0
2017-Apr-22 04:30N 59°20' E 018°05'0 0.0
2017-Apr-22 04:00N 59°20' E 018°05'0 0.0
2017-Apr-22 03:30N 59°20' E 018°05'0 0.0
2017-Apr-22 03:00N 59°20' E 018°05'0 0.0
2017-Apr-22 02:30N 59°20' E 018°05'0 0.0
2017-Apr-22 02:00N 59°20' E 018°05'0 0.0
2017-Apr-22 01:30N 59°20' E 018°05'0 0.0
2017-Apr-22 01:00N 59°20' E 018°05'0 0.0
2017-Apr-22 00:30N 59°20' E 018°05'0 0.0
2017-Apr-22 00:00N 59°20' E 018°05'0 0.0
2017-Apr-21 23:30N 59°20' E 018°05'0 0.0
2017-Apr-21 23:00N 59°20' E 018°05'0 0.0
2017-Apr-21 22:30N 59°20' E 018°05'0 0.0
2017-Apr-21 22:01N 59°20' E 018°05'510.0
2017-Apr-21 21:30N 59°21' E 018°14'5 9.4
2017-Apr-21 20:59N 59°24' E 018°21'13 8.5
2017-Apr-21 19:24N 59°28' E 018°47'2 5.2
2017-Apr-21 19:00N 59°27' E 018°51'4 3.2
2017-Apr-21 17:46N 59°24' E 018°47'13 8.2
2017-Apr-21 16:09N 59°25' E 018°21'1 5.3
2017-Apr-21 15:56N 59°24' E 018°21'510.6
2017-Apr-21 15:30N 59°21' E 018°15'510.9
2017-Apr-21 15:01N 59°20' E 018°05'0 0.1
2017-Apr-21 14:31N 59°20' E 018°05'0 0.0
2017-Apr-21 13:30N 59°20' E 018°05'0 0.0
2017-Apr-21 13:00N 59°20' E 018°05'0 0.0
2017-Apr-21 12:30N 59°20' E 018°05'0 0.7
2017-Apr-21 12:01N 59°19' E 018°05'510.7
2017-Apr-21 11:30N 59°21' E 018°15'5 8.8
2017-Apr-21 10:55N 59°25' E 018°21'1 0.6
2017-Apr-21 09:01N 59°24' E 018°21'0 7.6
2017-Apr-21 09:00N 59°24' E 018°21'5 9.2
2017-Apr-21 08:31N 59°21' E 018°15'510.6
2017-Apr-21 08:01N 59°20' E 018°04'0 0.0
2017-Apr-21 07:30N 59°20' E 018°04'0 0.0
2017-Apr-21 07:00N 59°20' E 018°04'0 0.0
2017-Apr-21 06:30N 59°20' E 018°04'0 0.0
2017-Apr-21 06:00N 59°20' E 018°04'0 0.0
2017-Apr-21 05:30N 59°20' E 018°04'0 0.0
2017-Apr-21 05:00N 59°20' E 018°04'0 0.0
2017-Apr-21 04:30N 59°20' E 018°04'0 0.0
2017-Apr-21 04:01N 59°20' E 018°04'0 0.0
2017-Apr-21 03:30N 59°20' E 018°05'0 0.0
2017-Apr-21 03:00N 59°20' E 018°04'0 0.0
2017-Apr-21 02:30N 59°20' E 018°04'0 0.0
2017-Apr-21 02:00N 59°20' E 018°04'0 0.0
2017-Apr-21 01:30N 59°20' E 018°04'0 0.0
2017-Apr-21 01:00N 59°20' E 018°04'0 0.0
2017-Apr-21 00:30N 59°20' E 018°05'0 0.0
2017-Apr-21 00:00N 59°20' E 018°04'0 0.0
2017-Apr-20 23:30N 59°20' E 018°04'0 0.0
2017-Apr-20 23:00N 59°20' E 018°04'0 0.0
2017-Apr-20 22:30N 59°20' E 018°04'0 0.0
2017-Apr-20 22:00N 59°20' E 018°04'0 0.0
2017-Apr-20 21:30N 59°20' E 018°04'0 0.0
2017-Apr-20 21:00N 59°20' E 018°04'0 0.0
2017-Apr-20 20:30N 59°20' E 018°04'0 0.0
2017-Apr-20 20:00N 59°20' E 018°04'0 0.0
2017-Apr-20 19:30N 59°20' E 018°04'0 0.0
2017-Apr-20 19:00N 59°20' E 018°04'0 0.0
2017-Apr-20 18:30N 59°20' E 018°04'0 0.0
2017-Apr-20 17:59N 59°20' E 018°04'0 0.0
2017-Apr-20 17:30N 59°20' E 018°04'0 0.0
2017-Apr-20 16:59N 59°20' E 018°04'0 0.0
2017-Apr-20 16:30N 59°20' E 018°04'0 0.0
2017-Apr-20 15:48N 59°20' E 018°04'0 0.0
2017-Apr-20 15:30N 59°20' E 018°04'0 0.0
2017-Apr-20 15:00N 59°20' E 018°04'0 0.0
2017-Apr-20 14:30N 59°20' E 018°04'0 0.0
2017-Apr-20 13:30N 59°20' E 018°04'0 0.0
2017-Apr-20 13:00N 59°20' E 018°04'0 0.0
2017-Apr-20 12:30N 59°20' E 018°04'0 0.0
2017-Apr-20 12:00N 59°20' E 018°04'0 0.0
2017-Apr-20 11:30N 59°20' E 018°04'0 0.0
2017-Apr-20 11:00N 59°20' E 018°04'0 0.0
2017-Apr-20 10:30N 59°20' E 018°04'0 0.0
2017-Apr-20 10:00N 59°20' E 018°04'0 0.0
2017-Apr-20 09:30N 59°20' E 018°04'0 0.0
2017-Apr-20 09:00N 59°20' E 018°04'0 0.0
2017-Apr-20 08:31N 59°20' E 018°04'0 0.0
2017-Apr-20 08:00N 59°20' E 018°04'0 0.0
2017-Apr-20 07:30N 59°20' E 018°04'0 0.0
2017-Apr-20 07:00N 59°20' E 018°04'0 0.0
2017-Apr-20 06:31N 59°20' E 018°04'0 0.0
2017-Apr-20 06:01N 59°20' E 018°04'4 7.5
2017-Apr-20 05:30N 59°20' E 018°12'5 9.6
2017-Apr-20 05:00N 59°23' E 018°20'2 3.9
2017-Apr-20 04:26N 59°23' E 018°24'1 2.1
2017-Apr-20 03:59N 59°24' E 018°22'0 1.0
2017-Apr-20 03:31N 59°24' E 018°21'0 0.0
2017-Apr-20 03:00N 59°24' E 018°21'0 0.0
2017-Apr-20 02:31N 59°24' E 018°21'0 0.0
2017-Apr-20 02:01N 59°24' E 018°21'0 0.0
2017-Apr-20 01:29N 59°24' E 018°21'0 0.0
2017-Apr-20 01:00N 59°24' E 018°21'0 0.0
2017-Apr-20 00:30N 59°24' E 018°21'0 0.0
2017-Apr-20 00:01N 59°24' E 018°21'0 0.0
2017-Apr-19 23:30N 59°24' E 018°21'0 0.0
2017-Apr-19 23:01N 59°24' E 018°21'0 0.0
2017-Apr-19 22:30N 59°24' E 018°21'0 0.0
2017-Apr-19 18:28N 59°24' E 018°21'0 0.0
2017-Apr-19 16:47N 59°24' E 018°21'1 4.7
2017-Apr-19 16:30N 59°23' E 018°20'4 7.9
2017-Apr-19 16:00N 59°21' E 018°13'5 9.6
2017-Apr-19 15:31N 59°20' E 018°04'0 0.0
2017-Apr-19 15:00N 59°20' E 018°04'0 0.0
2017-Apr-19 14:30N 59°20' E 018°04'0 0.0
2017-Apr-19 13:30N 59°20' E 018°04'0 0.0
2017-Apr-19 13:01N 59°20' E 018°04'0 0.0
2017-Apr-19 12:30N 59°20' E 018°04'0 0.0
2017-Apr-19 12:00N 59°20' E 018°04'0 0.0
2017-Apr-19 11:31N 59°20' E 018°04'0 0.0
2017-Apr-19 11:01N 59°20' E 018°04'0 0.0
2017-Apr-19 10:31N 59°20' E 018°04'0 0.0
2017-Apr-19 10:01N 59°20' E 018°04'0 0.0
2017-Apr-19 09:30N 59°20' E 018°04'0 0.0
2017-Apr-19 09:00N 59°20' E 018°04'0 0.0
2017-Apr-19 08:30N 59°20' E 018°04'1 1.8
2017-Apr-19 08:00N 59°19' E 018°06'510.9
2017-Apr-19 07:31N 59°22' E 018°15'4 6.6
2017-Apr-19 06:54N 59°24' E 018°21'4 7.1
2017-Apr-19 06:17N 59°25' E 018°30'310.6
2017-Apr-19 06:00N 59°24' E 018°35'610.8
2017-Apr-19 05:29N 59°23' E 018°46'2 3.4
2017-Apr-19 05:00N 59°23' E 018°49'3 7.1
2017-Apr-19 04:31N 59°25' E 018°55'2 4.0
2017-Apr-19 04:01N 59°27' E 018°56'0 0.8
2017-Apr-19 03:30N 59°27' E 018°55'0 0.0
2017-Apr-19 03:00N 59°27' E 018°55'0 0.0
2017-Apr-19 02:30N 59°27' E 018°55'0 0.0
2017-Apr-19 02:00N 59°27' E 018°55'0 0.0
2017-Apr-19 01:30N 59°27' E 018°55'0 0.0
2017-Apr-19 01:00N 59°27' E 018°55'0 0.0
2017-Apr-19 00:30N 59°27' E 018°55'0 0.0
2017-Apr-19 00:00N 59°27' E 018°55'0 0.0
2017-Apr-18 23:30N 59°27' E 018°55'0 0.0
2017-Apr-18 23:00N 59°27' E 018°55'0 0.0
2017-Apr-18 22:30N 59°27' E 018°55'0 0.0
2017-Apr-18 22:00N 59°27' E 018°55'0 0.0
2017-Apr-18 21:30N 59°27' E 018°55'0 0.0
2017-Apr-18 21:00N 59°27' E 018°55'0 0.0
2017-Apr-18 20:30N 59°27' E 018°55'0 0.0
2017-Apr-18 20:00N 59°27' E 018°55'0 0.0
2017-Apr-18 19:30N 59°27' E 018°55'0 0.0
2017-Apr-18 19:00N 59°27' E 018°55'0 0.0
2017-Apr-18 18:30N 59°27' E 018°55'0 0.0
2017-Apr-18 18:00N 59°27' E 018°55'0 0.0
2017-Apr-18 17:30N 59°27' E 018°55'0 0.0
2017-Apr-18 17:00N 59°27' E 018°55'5 1.3
2017-Apr-18 12:59N 59°24' E 018°47'4 4.5
2017-Apr-18 12:04N 59°25' E 018°55'0 5.7
2017-Apr-18 11:59N 59°25' E 018°55'1 2.4
2017-Apr-18 11:30N 59°27' E 018°55'0 0.0
2017-Apr-18 11:00N 59°27' E 018°55'0 0.0
2017-Apr-18 10:30N 59°27' E 018°55'5 6.4
2017-Apr-18 09:47N 59°23' E 018°50'7 1.7
2017-Apr-18 05:51N 59°22' E 018°37'410.1
2017-Apr-18 05:30N 59°26' E 018°39'2 3.4
2017-Apr-18 05:00N 59°26' E 018°42'5 9.7
2017-Apr-18 04:31N 59°29' E 018°50'1 2.3
2017-Apr-18 04:01N 59°30' E 018°51'0 0.0
2017-Apr-18 03:31N 59°30' E 018°51'0 0.0
2017-Apr-18 03:00N 59°30' E 018°51'0 0.0
2017-Apr-18 02:31N 59°30' E 018°51'0 0.0
2017-Apr-18 02:00N 59°30' E 018°51'0 0.0
2017-Apr-18 01:30N 59°30' E 018°51'0 0.0
2017-Apr-18 01:01N 59°30' E 018°51'0 0.0
2017-Apr-18 00:30N 59°30' E 018°51'0 0.0
2017-Apr-18 00:00N 59°30' E 018°51'0 0.0
2017-Apr-17 23:30N 59°30' E 018°51'0 0.0
2017-Apr-17 23:01N 59°30' E 018°51'0 0.0
2017-Apr-17 22:31N 59°30' E 018°51'0 0.0
2017-Apr-17 21:59N 59°30' E 018°51'0 0.0
2017-Apr-17 21:29N 59°30' E 018°51'0 0.0
2017-Apr-17 20:57N 59°30' E 018°51'0 0.0
2017-Apr-17 20:28N 59°30' E 018°51'0 0.0
2017-Apr-17 19:56N 59°30' E 018°51'0 0.0
2017-Apr-17 19:15N 59°30' E 018°51'0 0.0
2017-Apr-17 18:56N 59°30' E 018°51'15 6.6
2017-Apr-17 16:36N 59°25' E 018°22'1 1.8
2017-Apr-17 16:10N 59°24' E 018°21'10 4.3
2017-Apr-17 13:52N 59°25' E 018°41'3 7.6
2017-Apr-17 13:30N 59°27' E 018°44'1 0.2
2017-Apr-17 11:25N 59°28' E 018°45'511.3
2017-Apr-17 11:00N 59°25' E 018°37'812.0
2017-Apr-17 10:20N 59°25' E 018°22'2 4.7
2017-Apr-17 09:59N 59°23' E 018°20'4 8.3
2017-Apr-17 09:30N 59°21' E 018°14'510.1
2017-Apr-17 09:01N 59°20' E 018°05'0 0.0
2017-Apr-17 08:31N 59°20' E 018°05'0 0.0
2017-Apr-17 08:00N 59°20' E 018°05'0 0.0
2017-Apr-17 07:31N 59°20' E 018°05'0 0.0
2017-Apr-17 07:01N 59°20' E 018°05'0 0.0
2017-Apr-17 06:31N 59°20' E 018°05'0 0.0
2017-Apr-17 06:00N 59°20' E 018°05'0 0.0
2017-Apr-17 05:31N 59°20' E 018°05'0 0.0
2017-Apr-17 05:01N 59°20' E 018°05'0 0.0
2017-Apr-17 04:30N 59°20' E 018°05'0 0.0
2017-Apr-17 04:00N 59°20' E 018°05'0 0.0
2017-Apr-17 03:30N 59°20' E 018°05'0 0.0
2017-Apr-17 03:00N 59°20' E 018°05'0 0.0
2017-Apr-17 02:30N 59°20' E 018°05'0 0.0
2017-Apr-17 02:00N 59°20' E 018°05'0 0.0
2017-Apr-17 01:30N 59°20' E 018°05'0 0.0
2017-Apr-17 01:00N 59°20' E 018°05'0 0.0
2017-Apr-17 00:30N 59°20' E 018°05'0 0.0
2017-Apr-17 00:00N 59°20' E 018°05'  
Track history (hours):
 
Tides and Currents Weather Stations Pressure Air Temp Water Temp Dewpoint Dewpoint Depression Visibility Wind Speed Wind Dir Waves Ship Positions

Vano

Last reported at 2017-Apr-26 23:30 UTC. Time now 2017-Apr-26 23:37 UTC.
Position N 59°24' E 018°21'.

Length 38 m; draft 1.8 m.

Type: Passenger vessel. MMSI: 265520400.

Date/timePositionNaut miles runAvg speedWind from/ knotsBaromVisibWave heightAir tempDewpointWater temp
2017-Apr-26 23:30N 59°24' E 018°21'0 0.0
2017-Apr-26 23:00N 59°24' E 018°21'0 0.0
2017-Apr-26 22:30N 59°24' E 018°21'0 0.0
2017-Apr-26 22:00N 59°24' E 018°21'0 0.0
2017-Apr-26 21:29N 59°24' E 018°21'0 0.0
2017-Apr-26 21:00N 59°24' E 018°21'0 0.0
2017-Apr-26 20:29N 59°24' E 018°21'0 0.0
2017-Apr-26 19:59N 59°24' E 018°21'0 0.0
2017-Apr-26 19:28N 59°24' E 018°21'0 0.0
2017-Apr-26 18:58N 59°24' E 018°21'0 0.0
2017-Apr-26 18:28N 59°24' E 018°21'0 0.0
2017-Apr-26 17:59N 59°24' E 018°21'0 0.0
2017-Apr-26 17:30N 59°24' E 018°21'2 3.0
2017-Apr-26 17:01N 59°23' E 018°24'2 3.4
2017-Apr-26 16:30N 59°23' E 018°21'4 8.6
2017-Apr-26 16:01N 59°21' E 018°14'5 9.7
2017-Apr-26 15:31N 59°20' E 018°04'0 0.1
2017-Apr-26 15:01N 59°20' E 018°05'0 0.0
2017-Apr-26 14:00N 59°20' E 018°05'0 0.0
2017-Apr-26 13:30N 59°20' E 018°05'0 0.0
2017-Apr-26 13:01N 59°20' E 018°05'0 0.0
2017-Apr-26 12:31N 59°20' E 018°05'0 0.0
2017-Apr-26 12:01N 59°20' E 018°05'0 0.0
2017-Apr-26 11:31N 59°20' E 018°05'0 0.0
2017-Apr-26 11:00N 59°20' E 018°05'0 0.0
2017-Apr-26 10:31N 59°20' E 018°05'0 0.0
2017-Apr-26 10:01N 59°20' E 018°05'0 0.0
2017-Apr-26 09:30N 59°20' E 018°05'0 0.0
2017-Apr-26 09:00N 59°20' E 018°05'0 0.0
2017-Apr-26 08:31N 59°20' E 018°05'1 1.8
2017-Apr-26 08:01N 59°19' E 018°06'611.3
2017-Apr-26 07:31N 59°22' E 018°16'4 7.2
2017-Apr-26 06:59N 59°24' E 018°21'3 7.0
2017-Apr-26 06:30N 59°25' E 018°28'9 9.1
2017-Apr-26 05:30N 59°23' E 018°44'4 7.4
2017-Apr-26 04:56N 59°22' E 018°53'3 7.4
2017-Apr-26 04:30N 59°25' E 018°55'1 2.4
2017-Apr-26 04:00N 59°27' E 018°55'0 0.0
2017-Apr-26 03:30N 59°27' E 018°55'0 0.0
2017-Apr-26 03:00N 59°27' E 018°55'0 0.0
2017-Apr-26 02:30N 59°27' E 018°55'0 0.0
2017-Apr-26 02:00N 59°27' E 018°55'0 0.0
2017-Apr-26 01:30N 59°27' E 018°55'0 0.0
2017-Apr-26 01:00N 59°27' E 018°55'0 0.0
2017-Apr-26 00:30N 59°27' E 018°55'0 0.0
2017-Apr-26 00:00N 59°27' E 018°55'0 0.0
2017-Apr-25 23:30N 59°27' E 018°55'0 0.0
2017-Apr-25 23:00N 59°27' E 018°55'0 0.0
2017-Apr-25 22:30N 59°27' E 018°55'0 0.0
2017-Apr-25 22:00N 59°27' E 018°55'0 0.0
2017-Apr-25 21:30N 59°27' E 018°55'0 0.0
2017-Apr-25 21:00N 59°27' E 018°55'0 0.0
2017-Apr-25 20:30N 59°27' E 018°55'0 0.0
2017-Apr-25 20:00N 59°27' E 018°55'0 0.0
2017-Apr-25 19:30N 59°27' E 018°55'0 0.0
2017-Apr-25 19:00N 59°27' E 018°55'0 0.0
2017-Apr-25 18:30N 59°27' E 018°55'0 0.0
2017-Apr-25 18:00N 59°27' E 018°55'0 0.0
2017-Apr-25 17:30N 59°27' E 018°55'0 0.9
2017-Apr-25 17:00N 59°26' E 018°56'4 1.0
2017-Apr-25 12:30N 59°23' E 018°50'3 6.7
2017-Apr-25 12:00N 59°25' E 018°55'1 2.4
2017-Apr-25 11:30N 59°27' E 018°55'0 0.0
2017-Apr-25 11:00N 59°27' E 018°55'0 0.0
2017-Apr-25 10:30N 59°27' E 018°55'5 4.6
2017-Apr-25 09:23N 59°24' E 018°47'5 1.4
2017-Apr-25 05:37N 59°24' E 018°37'212.6
2017-Apr-25 05:28N 59°26' E 018°39'2 4.5
2017-Apr-25 04:59N 59°26' E 018°43'510.1
2017-Apr-25 04:30N 59°30' E 018°50'5 0.4
2017-Apr-24 16:34N 59°26' E 018°45'110.2
2017-Apr-24 16:28N 59°27' E 018°46'3 5.3
2017-Apr-24 15:56N 59°26' E 018°41'4 4.4
2017-Apr-24 15:01N 59°24' E 018°34'112.8
2017-Apr-24 14:59N 59°24' E 018°33'4 7.3
2017-Apr-24 14:30N 59°26' E 018°27'8 7.8
2017-Apr-24 13:31N 59°21' E 018°15'510.6
2017-Apr-24 13:00N 59°20' E 018°04'0 0.1
2017-Apr-24 12:30N 59°20' E 018°05'0 0.0
2017-Apr-24 12:00N 59°20' E 018°05'0 0.0
2017-Apr-24 11:30N 59°20' E 018°05'0 0.0
2017-Apr-24 11:00N 59°20' E 018°05'0 0.0
2017-Apr-24 10:30N 59°20' E 018°05'0 0.0
2017-Apr-24 10:00N 59°20' E 018°05'0 0.0
2017-Apr-24 09:30N 59°20' E 018°05'0 0.0
2017-Apr-24 09:00N 59°20' E 018°05'0 0.0
2017-Apr-24 08:30N 59°20' E 018°05'0 0.0
2017-Apr-24 08:01N 59°20' E 018°05'0 0.0
2017-Apr-24 07:30N 59°20' E 018°05'0 0.0
2017-Apr-24 07:00N 59°20' E 018°05'0 0.0
2017-Apr-24 06:30N 59°20' E 018°05'0 0.0
2017-Apr-24 06:00N 59°20' E 018°05'0 0.0
2017-Apr-24 05:30N 59°20' E 018°05'0 0.0
2017-Apr-24 05:00N 59°20' E 018°05'0 0.0
2017-Apr-24 04:30N 59°20' E 018°05'0 0.0
2017-Apr-24 04:00N 59°20' E 018°05'0 0.0
2017-Apr-24 03:30N 59°20' E 018°05'0 0.0
2017-Apr-24 03:00N 59°20' E 018°05'0 0.0
2017-Apr-24 02:30N 59°20' E 018°05'0 0.0
2017-Apr-24 02:00N 59°20' E 018°05'0 0.0
2017-Apr-24 01:30N 59°20' E 018°05'0 0.0
2017-Apr-24 01:00N 59°20' E 018°05'0 0.0
2017-Apr-24 00:30N 59°20' E 018°05'0 0.0
2017-Apr-24 00:00N 59°20' E 018°05'0 0.0
2017-Apr-23 23:30N 59°20' E 018°05'0 0.0
2017-Apr-23 23:00N 59°20' E 018°05'0 0.0
2017-Apr-23 22:30N 59°20' E 018°05'0 0.0
2017-Apr-23 22:00N 59°20' E 018°05'0 0.0
2017-Apr-23 21:30N 59°20' E 018°05'0 0.0
2017-Apr-23 21:00N 59°20' E 018°05'0 0.0
2017-Apr-23 20:30N 59°20' E 018°05'0 0.0
2017-Apr-23 20:00N 59°20' E 018°05'0 0.0
2017-Apr-23 19:30N 59°20' E 018°05'0 0.0
2017-Apr-23 19:00N 59°20' E 018°05'2 3.4
2017-Apr-23 18:30N 59°19' E 018°08'713.1
2017-Apr-23 17:59N 59°22' E 018°20'4 8.7
2017-Apr-23 17:30N 59°26' E 018°25'7 8.4
2017-Apr-23 16:41N 59°28' E 018°38'211.2
2017-Apr-23 16:30N 59°28' E 018°42'5 9.8
2017-Apr-23 16:00N 59°30' E 018°51'1013.7
2017-Apr-23 15:16N 59°24' E 018°35'415.8
2017-Apr-23 15:00N 59°25' E 018°27'1010.5
2017-Apr-23 14:00N 59°19' E 018°10'3 6.0
2017-Apr-23 13:31N 59°20' E 018°05'2 3.5
2017-Apr-23 13:00N 59°19' E 018°08'713.9
2017-Apr-23 12:30N 59°23' E 018°19'4 6.9
2017-Apr-23 12:00N 59°26' E 018°23'713.7
2017-Apr-23 11:30N 59°24' E 018°37'3 5.3
2017-Apr-23 10:56N 59°26' E 018°41'2 1.3
2017-Apr-23 09:25N 59°27' E 018°45'3 5.9
2017-Apr-23 08:54N 59°26' E 018°39'3 5.2
2017-Apr-23 08:16N 59°24' E 018°34'3 8.7
2017-Apr-23 07:54N 59°25' E 018°28'3 8.1
2017-Apr-23 07:30N 59°24' E 018°21'5 9.8
2017-Apr-23 07:01N 59°21' E 018°15'510.7
2017-Apr-23 06:31N 59°20' E 018°04'0 0.1
2017-Apr-23 06:01N 59°20' E 018°04'0 0.0
2017-Apr-23 05:30N 59°20' E 018°04'0 0.0
2017-Apr-23 05:01N 59°20' E 018°04'0 0.0
2017-Apr-23 04:31N 59°20' E 018°04'0 0.0
2017-Apr-23 04:00N 59°20' E 018°04'0 0.0
2017-Apr-23 03:30N 59°20' E 018°04'0 0.0
2017-Apr-23 03:00N 59°20' E 018°04'0 0.0
2017-Apr-23 02:30N 59°20' E 018°04'0 0.0
2017-Apr-23 02:00N 59°20' E 018°04'0 0.0
2017-Apr-23 01:30N 59°20' E 018°04'0 0.0
2017-Apr-23 01:00N 59°20' E 018°04'0 0.0
2017-Apr-23 00:30N 59°20' E 018°04'0 0.0
2017-Apr-23 00:00N 59°20' E 018°04'0 0.0
2017-Apr-22 23:30N 59°20' E 018°04'0 0.0
2017-Apr-22 23:00N 59°20' E 018°04'0 0.0
2017-Apr-22 22:30N 59°20' E 018°04'0 0.0
2017-Apr-22 22:00N 59°20' E 018°04'0 0.0
2017-Apr-22 21:30N 59°20' E 018°04'0 0.0
2017-Apr-22 21:00N 59°20' E 018°04'0 0.0
2017-Apr-22 20:30N 59°20' E 018°04'0 0.0
2017-Apr-22 20:00N 59°20' E 018°04'0 0.0
2017-Apr-22 19:30N 59°20' E 018°04'0 0.0
2017-Apr-22 19:00N 59°20' E 018°04'0 0.0
2017-Apr-22 18:30N 59°20' E 018°04'0 0.0
2017-Apr-22 18:00N 59°20' E 018°04'0 0.0
2017-Apr-22 17:28N 59°20' E 018°04'0 0.0
2017-Apr-22 16:57N 59°20' E 018°04'0 0.0
2017-Apr-22 16:30N 59°20' E 018°04'0 0.0
2017-Apr-22 15:58N 59°20' E 018°04'0 0.0
2017-Apr-22 15:30N 59°20' E 018°04'0 0.0
2017-Apr-22 15:00N 59°20' E 018°04'0 0.7
2017-Apr-22 14:30N 59°19' E 018°05'10 9.6
2017-Apr-22 13:30N 59°24' E 018°21'17 6.2
2017-Apr-22 10:45N 59°25' E 018°55'2 6.6
2017-Apr-22 10:30N 59°27' E 018°55'0 0.9
2017-Apr-22 10:00N 59°27' E 018°56'4 7.2
2017-Apr-22 09:29N 59°29' E 018°50'2 5.2
2017-Apr-22 09:00N 59°29' E 018°45'5 8.9
2017-Apr-22 08:29N 59°27' E 018°36'8 8.4
2017-Apr-22 07:31N 59°24' E 018°21'0 6.7
2017-Apr-22 07:30N 59°24' E 018°21'4 9.0
2017-Apr-22 07:00N 59°21' E 018°14'510.7
2017-Apr-22 06:31N 59°20' E 018°05'0 0.1
2017-Apr-22 06:00N 59°20' E 018°05'0 0.0
2017-Apr-22 05:30N 59°20' E 018°05'0 0.0
2017-Apr-22 05:00N 59°20' E 018°05'0 0.0
2017-Apr-22 04:30N 59°20' E 018°05'0 0.0
2017-Apr-22 04:00N 59°20' E 018°05'0 0.0
2017-Apr-22 03:30N 59°20' E 018°05'0 0.0
2017-Apr-22 03:00N 59°20' E 018°05'0 0.0
2017-Apr-22 02:30N 59°20' E 018°05'0 0.0
2017-Apr-22 02:00N 59°20' E 018°05'0 0.0
2017-Apr-22 01:30N 59°20' E 018°05'0 0.0
2017-Apr-22 01:00N 59°20' E 018°05'0 0.0
2017-Apr-22 00:30N 59°20' E 018°05'0 0.0
2017-Apr-22 00:00N 59°20' E 018°05'0 0.0
2017-Apr-21 23:30N 59°20' E 018°05'0 0.0
2017-Apr-21 23:00N 59°20' E 018°05'0 0.0
2017-Apr-21 22:30N 59°20' E 018°05'0 0.0
2017-Apr-21 22:01N 59°20' E 018°05'510.0
2017-Apr-21 21:30N 59°21' E 018°14'5 9.4
2017-Apr-21 20:59N 59°24' E 018°21'13 8.5
2017-Apr-21 19:24N 59°28' E 018°47'2 5.2
2017-Apr-21 19:00N 59°27' E 018°51'4 3.2
2017-Apr-21 17:46N 59°24' E 018°47'13 8.2
2017-Apr-21 16:09N 59°25' E 018°21'1 5.3
2017-Apr-21 15:56N 59°24' E 018°21'510.6
2017-Apr-21 15:30N 59°21' E 018°15'510.9
2017-Apr-21 15:01N 59°20' E 018°05'0 0.1
2017-Apr-21 14:31N 59°20' E 018°05'0 0.0
2017-Apr-21 13:30N 59°20' E 018°05'0 0.0
2017-Apr-21 13:00N 59°20' E 018°05'0 0.0
2017-Apr-21 12:30N 59°20' E 018°05'0 0.7
2017-Apr-21 12:01N 59°19' E 018°05'510.7
2017-Apr-21 11:30N 59°21' E 018°15'5 8.8
2017-Apr-21 10:55N 59°25' E 018°21'1 0.6
2017-Apr-21 09:01N 59°24' E 018°21'0 7.6
2017-Apr-21 09:00N 59°24' E 018°21'5 9.2
2017-Apr-21 08:31N 59°21' E 018°15'510.6
2017-Apr-21 08:01N 59°20' E 018°04'0 0.0
2017-Apr-21 07:30N 59°20' E 018°04'0 0.0
2017-Apr-21 07:00N 59°20' E 018°04'0 0.0
2017-Apr-21 06:30N 59°20' E 018°04'0 0.0
2017-Apr-21 06:00N 59°20' E 018°04'0 0.0
2017-Apr-21 05:30N 59°20' E 018°04'0 0.0
2017-Apr-21 05:00N 59°20' E 018°04'0 0.0
2017-Apr-21 04:30N 59°20' E 018°04'0 0.0
2017-Apr-21 04:01N 59°20' E 018°04'0 0.0
2017-Apr-21 03:30N 59°20' E 018°05'0 0.0
2017-Apr-21 03:00N 59°20' E 018°04'0 0.0
2017-Apr-21 02:30N 59°20' E 018°04'0 0.0
2017-Apr-21 02:00N 59°20' E 018°04'0 0.0
2017-Apr-21 01:30N 59°20' E 018°04'0 0.0
2017-Apr-21 01:00N 59°20' E 018°04'0 0.0
2017-Apr-21 00:30N 59°20' E 018°05'0 0.0
2017-Apr-21 00:00N 59°20' E 018°04'0 0.0
2017-Apr-20 23:30N 59°20' E 018°04'0 0.0
2017-Apr-20 23:00N 59°20' E 018°04'0 0.0
2017-Apr-20 22:30N 59°20' E 018°04'0 0.0
2017-Apr-20 22:00N 59°20' E 018°04'0 0.0
2017-Apr-20 21:30N 59°20' E 018°04'0 0.0
2017-Apr-20 21:00N 59°20' E 018°04'0 0.0
2017-Apr-20 20:30N 59°20' E 018°04'0 0.0
2017-Apr-20 20:00N 59°20' E 018°04'0 0.0
2017-Apr-20 19:30N 59°20' E 018°04'0 0.0
2017-Apr-20 19:00N 59°20' E 018°04'0 0.0
2017-Apr-20 18:30N 59°20' E 018°04'0 0.0
2017-Apr-20 17:59N 59°20' E 018°04'0 0.0
2017-Apr-20 17:30N 59°20' E 018°04'0 0.0
2017-Apr-20 16:59N 59°20' E 018°04'0 0.0
2017-Apr-20 16:30N 59°20' E 018°04'0 0.0
2017-Apr-20 15:48N 59°20' E 018°04'0 0.0
2017-Apr-20 15:30N 59°20' E 018°04'0 0.0
2017-Apr-20 15:00N 59°20' E 018°04'0 0.0
2017-Apr-20 14:30N 59°20' E 018°04'0 0.0
2017-Apr-20 13:30N 59°20' E 018°04'0 0.0
2017-Apr-20 13:00N 59°20' E 018°04'0 0.0
2017-Apr-20 12:30N 59°20' E 018°04'0 0.0
2017-Apr-20 12:00N 59°20' E 018°04'0 0.0
2017-Apr-20 11:30N 59°20' E 018°04'0 0.0
2017-Apr-20 11:00N 59°20' E 018°04'0 0.0
2017-Apr-20 10:30N 59°20' E 018°04'0 0.0
2017-Apr-20 10:00N 59°20' E 018°04'0 0.0
2017-Apr-20 09:30N 59°20' E 018°04'0 0.0
2017-Apr-20 09:00N 59°20' E 018°04'0 0.0
2017-Apr-20 08:31N 59°20' E 018°04'0 0.0
2017-Apr-20 08:00N 59°20' E 018°04'0 0.0
2017-Apr-20 07:30N 59°20' E 018°04'0 0.0
2017-Apr-20 07:00N 59°20' E 018°04'0 0.0
2017-Apr-20 06:31N 59°20' E 018°04'0 0.0
2017-Apr-20 06:01N 59°20' E 018°04'4 7.5
2017-Apr-20 05:30N 59°20' E 018°12'5 9.6
2017-Apr-20 05:00N 59°23' E 018°20'2 3.9
2017-Apr-20 04:26N 59°23' E 018°24'1 2.1
2017-Apr-20 03:59N 59°24' E 018°22'0 1.0
2017-Apr-20 03:31N 59°24' E 018°21'0 0.0
2017-Apr-20 03:00N 59°24' E 018°21'0 0.0
2017-Apr-20 02:31N 59°24' E 018°21'0 0.0
2017-Apr-20 02:01N 59°24' E 018°21'0 0.0
2017-Apr-20 01:29N 59°24' E 018°21'0 0.0
2017-Apr-20 01:00N 59°24' E 018°21'0 0.0
2017-Apr-20 00:30N 59°24' E 018°21'0 0.0
2017-Apr-20 00:01N 59°24' E 018°21'0 0.0
2017-Apr-19 23:30N 59°24' E 018°21'0 0.0
2017-Apr-19 23:01N 59°24' E 018°21'0 0.0
2017-Apr-19 22:30N 59°24' E 018°21'0 0.0
2017-Apr-19 18:28N 59°24' E 018°21'0 0.0
2017-Apr-19 16:47N 59°24' E 018°21'1 4.7
2017-Apr-19 16:30N 59°23' E 018°20'4 7.9
2017-Apr-19 16:00N 59°21' E 018°13'5 9.6
2017-Apr-19 15:31N 59°20' E 018°04'0 0.0
2017-Apr-19 15:00N 59°20' E 018°04'0 0.0
2017-Apr-19 14:30N 59°20' E 018°04'0 0.0
2017-Apr-19 13:30N 59°20' E 018°04'0 0.0
2017-Apr-19 13:01N 59°20' E 018°04'0 0.0
2017-Apr-19 12:30N 59°20' E 018°04'0 0.0
2017-Apr-19 12:00N 59°20' E 018°04'0 0.0
2017-Apr-19 11:31N 59°20' E 018°04'0 0.0
2017-Apr-19 11:01N 59°20' E 018°04'0 0.0
2017-Apr-19 10:31N 59°20' E 018°04'0 0.0
2017-Apr-19 10:01N 59°20' E 018°04'0 0.0
2017-Apr-19 09:30N 59°20' E 018°04'0 0.0
2017-Apr-19 09:00N 59°20' E 018°04'0 0.0
2017-Apr-19 08:30N 59°20' E 018°04'1 1.8
2017-Apr-19 08:00N 59°19' E 018°06'510.9
2017-Apr-19 07:31N 59°22' E 018°15'4 6.6
2017-Apr-19 06:54N 59°24' E 018°21'4 7.1
2017-Apr-19 06:17N 59°25' E 018°30'310.6
2017-Apr-19 06:00N 59°24' E 018°35'610.8
2017-Apr-19 05:29N 59°23' E 018°46'2 3.4
2017-Apr-19 05:00N 59°23' E 018°49'3 7.1
2017-Apr-19 04:31N 59°25' E 018°55'2 4.0
2017-Apr-19 04:01N 59°27' E 018°56'0 0.8
2017-Apr-19 03:30N 59°27' E 018°55'0 0.0
2017-Apr-19 03:00N 59°27' E 018°55'0 0.0
2017-Apr-19 02:30N 59°27' E 018°55'0 0.0
2017-Apr-19 02:00N 59°27' E 018°55'0 0.0
2017-Apr-19 01:30N 59°27' E 018°55'0 0.0
2017-Apr-19 01:00N 59°27' E 018°55'0 0.0
2017-Apr-19 00:30N 59°27' E 018°55'0 0.0
2017-Apr-19 00:00N 59°27' E 018°55'0 0.0
2017-Apr-18 23:30N 59°27' E 018°55'0 0.0
2017-Apr-18 23:00N 59°27' E 018°55'0 0.0
2017-Apr-18 22:30N 59°27' E 018°55'0 0.0
2017-Apr-18 22:00N 59°27' E 018°55'0 0.0
2017-Apr-18 21:30N 59°27' E 018°55'0 0.0
2017-Apr-18 21:00N 59°27' E 018°55'0 0.0
2017-Apr-18 20:30N 59°27' E 018°55'0 0.0
2017-Apr-18 20:00N 59°27' E 018°55'0 0.0
2017-Apr-18 19:30N 59°27' E 018°55'0 0.0
2017-Apr-18 19:00N 59°27' E 018°55'0 0.0
2017-Apr-18 18:30N 59°27' E 018°55'0 0.0
2017-Apr-18 18:00N 59°27' E 018°55'0 0.0
2017-Apr-18 17:30N 59°27' E 018°55'0 0.0
2017-Apr-18 17:00N 59°27' E 018°55'5 1.3
2017-Apr-18 12:59N 59°24' E 018°47'4 4.5
2017-Apr-18 12:04N 59°25' E 018°55'0 5.7
2017-Apr-18 11:59N 59°25' E 018°55'1 2.4
2017-Apr-18 11:30N 59°27' E 018°55'0 0.0
2017-Apr-18 11:00N 59°27' E 018°55'0 0.0
2017-Apr-18 10:30N 59°27' E 018°55'5 6.4
2017-Apr-18 09:47N 59°23' E 018°50'7 1.7
2017-Apr-18 05:51N 59°22' E 018°37'410.1
2017-Apr-18 05:30N 59°26' E 018°39'2 3.4
2017-Apr-18 05:00N 59°26' E 018°42'5 9.7
2017-Apr-18 04:31N 59°29' E 018°50'1 2.3
2017-Apr-18 04:01N 59°30' E 018°51'0 0.0
2017-Apr-18 03:31N 59°30' E 018°51'0 0.0
2017-Apr-18 03:00N 59°30' E 018°51'0 0.0
2017-Apr-18 02:31N 59°30' E 018°51'0 0.0
2017-Apr-18 02:00N 59°30' E 018°51'0 0.0
2017-Apr-18 01:30N 59°30' E 018°51'0 0.0
2017-Apr-18 01:01N 59°30' E 018°51'0 0.0
2017-Apr-18 00:30N 59°30' E 018°51'0 0.0
2017-Apr-18 00:00N 59°30' E 018°51'0 0.0
2017-Apr-17 23:30N 59°30' E 018°51'0 0.0
2017-Apr-17 23:01N 59°30' E 018°51'0 0.0
2017-Apr-17 22:31N 59°30' E 018°51'0 0.0
2017-Apr-17 21:59N 59°30' E 018°51'0 0.0
2017-Apr-17 21:29N 59°30' E 018°51'0 0.0
2017-Apr-17 20:57N 59°30' E 018°51'0 0.0
2017-Apr-17 20:28N 59°30' E 018°51'0 0.0
2017-Apr-17 19:56N 59°30' E 018°51'0 0.0
2017-Apr-17 19:15N 59°30' E 018°51'0 0.0
2017-Apr-17 18:56N 59°30' E 018°51'15 6.6
2017-Apr-17 16:36N 59°25' E 018°22'1 1.8
2017-Apr-17 16:10N 59°24' E 018°21'10 4.3
2017-Apr-17 13:52N 59°25' E 018°41'3 7.6
2017-Apr-17 13:30N 59°27' E 018°44'1 0.2
2017-Apr-17 11:25N 59°28' E 018°45'511.3
2017-Apr-17 11:00N 59°25' E 018°37'812.0
2017-Apr-17 10:20N 59°25' E 018°22'2 4.7
2017-Apr-17 09:59N 59°23' E 018°20'4 8.3
2017-Apr-17 09:30N 59°21' E 018°14'510.1
2017-Apr-17 09:01N 59°20' E 018°05'0 0.0
2017-Apr-17 08:31N 59°20' E 018°05'0 0.0
2017-Apr-17 08:00N 59°20' E 018°05'0 0.0
2017-Apr-17 07:31N 59°20' E 018°05'0 0.0
2017-Apr-17 07:01N 59°20' E 018°05'0 0.0
2017-Apr-17 06:31N 59°20' E 018°05'0 0.0
2017-Apr-17 06:00N 59°20' E 018°05'0 0.0
2017-Apr-17 05:31N 59°20' E 018°05'0 0.0
2017-Apr-17 05:01N 59°20' E 018°05'0 0.0
2017-Apr-17 04:30N 59°20' E 018°05'0 0.0
2017-Apr-17 04:00N 59°20' E 018°05'0 0.0
2017-Apr-17 03:30N 59°20' E 018°05'0 0.0
2017-Apr-17 03:00N 59°20' E 018°05'0 0.0
2017-Apr-17 02:30N 59°20' E 018°05'0 0.0
2017-Apr-17 02:00N 59°20' E 018°05'0 0.0
2017-Apr-17 01:30N 59°20' E 018°05'0 0.0
2017-Apr-17 01:00N 59°20' E 018°05'0 0.0
2017-Apr-17 00:30N 59°20' E 018°05'0 0.0
2017-Apr-17 00:00N 59°20' E 018°05'  

Dump ship's entire track history